Time;durP1;ratioP1;P1;durP2;ratioP2;P2;SDS_P1;SDS_P2;PMS_P1;PMS_P2;Temp;Humidity;BMP_temperature;BMP_pressure;BME280_temperature;BME280_humidity;BME280_pressure;Samples;Min_cycle;Max_cycle;Signal;HPM_P1;HPM_P2
2021/07/02 00:00:23;;;;;;;14.65;7.20;;;;;;;19.40;96.52;98584.70;1648103;87;21009;-82
2021/07/02 00:02:49;;;;;;;12.40;7.62;;;;;;;19.39;96.30;98587.88;1647989;87;20898;-82
2021/07/02 00:05:16;;;;;;;11.53;8.23;;;;;;;19.37;96.30;98581.33;1648026;86;21778;-81
2021/07/02 00:07:44;;;;;;;10.35;6.35;;;;;;;19.33;96.23;98582.52;1647877;85;21024;-83
2021/07/02 00:10:12;;;;;;;15.88;8.18;;;;;;;19.27;96.08;98589.67;1648043;85;21509;-83
2021/07/02 00:12:38;;;;;;;11.60;8.28;;;;;;;19.22;96.29;98599.80;1648308;86;20946;-81
2021/07/02 00:15:07;;;;;;;13.15;8.98;;;;;;;19.20;96.87;98608.55;1648000;86;21030;-81
2021/07/02 00:17:34;;;;;;;10.95;7.60;;;;;;;19.22;97.63;98597.02;1647921;87;22020;-81
2021/07/02 00:20:01;;;;;;;16.30;8.65;;;;;;;19.24;97.99;98605.77;1647186;85;20918;-77
2021/07/02 00:22:27;;;;;;;12.82;7.30;;;;;;;19.26;98.20;98602.78;1648167;87;21062;-77
2021/07/02 00:24:54;;;;;;;11.57;8.08;;;;;;;19.28;98.23;98595.43;1647978;85;20982;-77
2021/07/02 00:27:20;;;;;;;16.73;8.00;;;;;;;19.25;97.89;98593.44;1648028;85;21529;-77
2021/07/02 00:29:46;;;;;;;15.65;8.48;;;;;;;19.20;97.66;98591.05;1648100;87;20983;-80
2021/07/02 00:32:13;;;;;;;14.78;7.92;;;;;;;19.16;97.64;98595.81;1647926;85;21073;-81
2021/07/02 00:34:40;;;;;;;13.60;8.03;;;;;;;19.13;98.00;98590.45;1647956;87;20974;-78
2021/07/02 00:37:06;;;;;;;16.55;8.40;;;;;;;19.10;98.11;98585.08;1648059;85;20966;-78
2021/07/02 00:39:33;;;;;;;11.33;8.45;;;;;;;19.09;98.29;98586.87;1644921;87;21053;-77
2021/07/02 00:42:00;;;;;;;12.95;7.62;;;;;;;19.06;98.45;98584.28;1610453;87;21169;-77
2021/07/02 00:44:45;;;;;;;16.20;8.15;;;;;;;19.04;98.87;98576.95;1605809;89;21045;-77
2021/07/02 00:47:12;;;;;;;14.10;8.58;;;;;;;19.04;99.03;98566.42;1616426;88;20931;-76
2021/07/02 00:49:39;;;;;;;12.68;7.37;;;;;;;19.01;99.21;98558.27;1616283;88;21540;-80
2021/07/02 00:52:09;;;;;;;15.18;7.65;;;;;;;18.99;99.26;98557.88;1605962;89;20981;-80
2021/07/02 00:54:37;;;;;;;13.00;6.97;;;;;;;18.96;99.43;98555.88;1633358;85;21172;-78
2021/07/02 00:57:05;;;;;;;13.95;7.10;;;;;;;18.95;99.75;98557.67;1624420;85;21065;-75
2021/07/02 00:59:32;;;;;;;17.52;7.28;;;;;;;18.93;99.79;98555.28;1621460;88;20895;-76
2021/07/02 01:01:59;;;;;;;12.53;7.60;;;;;;;18.91;99.91;98556.87;1632001;87;21441;-79
2021/07/02 01:04:28;;;;;;;11.88;7.42;;;;;;;18.90;100.00;98556.67;1647957;86;21451;-78
2021/07/02 01:06:56;;;;;;;13.48;7.30;;;;;;;18.91;100.00;98555.48;1644111;85;21149;-81
2021/07/02 01:09:22;;;;;;;15.00;7.33;;;;;;;18.89;100.00;98556.47;1647605;87;21034;-82
2021/07/02 01:11:51;;;;;;;16.62;7.42;;;;;;;18.90;100.00;98553.30;1647056;87;21021;-82
2021/07/02 01:14:19;;;;;;;14.07;7.28;;;;;;;18.89;100.00;98550.91;1648035;87;20930;-81
2021/07/02 01:16:46;;;;;;;18.48;7.10;;;;;;;18.86;100.00;98551.10;1646997;87;22169;-77
2021/07/02 01:19:14;;;;;;;15.50;7.22;;;;;;;18.85;100.00;98549.52;1646560;87;21131;-78
2021/07/02 01:21:43;;;;;;;14.80;6.85;;;;;;;18.84;100.00;98548.52;1646637;85;22120;-77
2021/07/02 01:24:11;;;;;;;18.42;8.05;;;;;;;18.80;100.00;98548.51;1646541;87;21117;-78
2021/07/02 01:26:37;;;;;;;10.50;6.90;;;;;;;18.79;100.00;98542.16;1646798;87;21647;-79
2021/07/02 01:29:04;;;;;;;9.90;7.30;;;;;;;18.76;100.00;98548.50;1646708;87;21077;-81
2021/07/02 01:31:31;;;;;;;11.18;6.95;;;;;;;18.74;100.00;98554.25;1647336;86;21137;-78
2021/07/02 01:33:58;;;;;;;16.87;8.23;;;;;;;18.72;100.00;98552.46;1647965;87;20883;-78
2021/07/02 01:36:26;;;;;;;16.80;7.55;;;;;;;18.72;100.00;98560.80;1648346;87;21564;-78
2021/07/02 01:38:54;;;;;;;14.30;6.95;;;;;;;18.73;100.00;98562.39;1648025;86;20993;-78
2021/07/02 01:41:21;;;;;;;19.02;7.53;;;;;;;18.70;100.00;98559.80;1648336;87;21473;-78
2021/07/02 01:43:50;;;;;;;9.80;7.17;;;;;;;18.70;100.00;98565.96;1648031;87;21081;-78
2021/07/02 01:46:17;;;;;;;12.43;7.00;;;;;;;18.69;100.00;98568.54;1648238;87;20970;-78
2021/07/02 01:48:44;;;;;;;14.55;7.60;;;;;;;18.66;100.00;98573.50;1622760;85;21017;-78
2021/07/02 01:51:12;;;;;;;12.93;8.08;;;;;;;18.64;100.00;98575.87;1606187;89;21461;-78
2021/07/02 01:53:39;;;;;;;9.83;7.15;;;;;;;18.64;100.00;98575.87;1605992;89;20929;-78
2021/07/02 01:56:07;;;;;;;10.00;6.97;;;;;;;18.62;100.00;98582.42;1606058;89;21169;-78
2021/07/02 01:58:35;;;;;;;15.72;7.60;;;;;;;18.58;100.00;98585.75;1605975;89;21473;-78
2021/07/02 02:01:12;;;;;;;9.43;7.12;;;;;;;18.54;100.00;98585.73;1608570;87;20890;-78
2021/07/02 02:03:40;;;;;;;12.53;7.53;;;;;;;18.52;100.00;98587.31;1648029;87;20950;-78
2021/07/02 02:06:07;;;;;;;13.20;7.15;;;;;;;18.48;100.00;98589.48;1648055;87;20971;-77
2021/07/02 02:08:33;;;;;;;13.10;7.70;;;;;;;18.47;100.00;98592.09;1648078;87;21498;-78
2021/07/02 02:11:00;;;;;;;13.55;8.48;;;;;;;18.44;100.00;98588.70;1647953;85;20906;-78
2021/07/02 02:13:29;;;;;;;11.33;8.60;;;;;;;18.40;100.00;98589.88;1647989;86;20934;-76
2021/07/02 02:15:58;;;;;;;12.00;8.60;;;;;;;18.37;100.00;98596.21;1642912;86;20934;-76
2021/07/02 02:18:25;;;;;;;14.60;8.80;;;;;;;18.34;100.00;98604.73;1648077;87;21027;-77
2021/07/02 02:20:52;;;;;;;13.03;9.23;;;;;;;18.34;100.00;98613.07;1647981;87;21509;-73
2021/07/02 02:23:19;;;;;;;12.00;8.45;;;;;;;18.35;100.00;98619.42;1647943;87;21461;-77
2021/07/02 02:25:45;;;;;;;13.75;9.45;;;;;;;18.38;100.00;98616.66;1648084;87;20946;-76
2021/07/02 02:28:12;;;;;;;15.88;9.95;;;;;;;18.42;100.00;98620.25;1637385;85;21497;-77
2021/07/02 02:30:40;;;;;;;15.68;11.20;;;;;;;18.44;100.00;98631.77;1641800;86;20941;-77
2021/07/02 02:33:11;;;;;;;13.43;10.50;;;;;;;18.48;100.00;98632.56;1623395;87;21513;-78
2021/07/02 02:35:37;;;;;;;15.45;11.08;;;;;;;18.48;100.00;98640.12;1647950;85;21589;-76
2021/07/02 02:38:03;;;;;;;13.18;11.10;;;;;;;18.46;100.00;98648.86;1612820;87;21056;-77
2021/07/02 02:40:31;;;;;;;14.23;10.53;;;;;;;18.47;100.00;98660.77;1616900;88;20914;-78
2021/07/02 02:42:58;;;;;;;15.68;12.03;;;;;;;18.48;100.00;98658.19;1621548;85;20998;-77
2021/07/02 02:45:27;;;;;;;18.90;12.60;;;;;;;18.45;100.00;98666.72;1646965;86;21010;-78
2021/07/02 02:47:56;;;;;;;15.03;12.18;;;;;;;18.43;100.00;98671.87;1646563;87;21005;-78
2021/07/02 02:50:22;;;;;;;17.67;12.63;;;;;;;18.44;100.00;98673.45;1647322;85;21060;-79
2021/07/02 02:52:51;;;;;;;18.50;13.38;;;;;;;18.43;100.00;98676.63;1647229;87;21112;-79
2021/07/02 02:55:18;;;;;;;19.60;12.63;;;;;;;18.41;100.00;98671.45;1647369;86;21125;-79
2021/07/02 02:57:45;;;;;;;16.07;12.80;;;;;;;18.44;100.00;98672.06;1647331;87;21836;-78
2021/07/02 03:00:13;;;;;;;17.70;12.15;;;;;;;18.47;100.00;98676.05;1647072;85;20955;-78
2021/07/02 03:02:39;;;;;;;19.65;11.75;;;;;;;18.47;100.00;98676.05;1650254;85;21545;-79
2021/07/02 03:05:08;;;;;;;15.55;11.90;;;;;;;18.52;100.00;98674.85;1617303;86;21190;-81
2021/07/02 03:07:36;;;;;;;16.57;11.30;;;;;;;18.55;100.00;98669.91;1651323;85;21053;-80
2021/07/02 03:10:04;;;;;;;18.80;10.78;;;;;;;18.58;100.00;98667.73;1663198;85;21527;-78
2021/07/02 03:12:33;;;;;;;13.48;11.18;;;;;;;18.65;100.00;98671.97;1669604;84;21103;-73
2021/07/02 03:15:01;;;;;;;18.17;12.33;;;;;;;18.72;100.00;98678.95;1664145;85;20884;-79
2021/07/02 03:17:28;;;;;;;13.03;10.90;;;;;;;18.75;100.00;98678.17;1658294;85;21013;-75
2021/07/02 03:19:55;;;;;;;19.02;11.78;;;;;;;18.78;100.00;98686.53;1668794;85;20953;-76
2021/07/02 03:22:22;;;;;;;17.67;11.80;;;;;;;18.79;100.00;98688.13;1661107;85;21523;-78
2021/07/02 03:24:49;;;;;;;19.15;10.58;;;;;;;18.85;100.00;98689.13;1668040;85;21465;-78
2021/07/02 03:27:16;;;;;;;18.45;11.55;;;;;;;18.88;100.00;98678.03;1659660;86;20950;-78
2021/07/02 03:29:43;;;;;;;15.60;10.28;;;;;;;18.92;100.00;98680.22;1657729;86;21018;-78
2021/07/02 03:32:09;;;;;;;15.05;10.45;;;;;;;18.94;100.00;98677.84;1659525;86;21595;-73
2021/07/02 03:34:38;;;;;;;13.00;9.73;;;;;;;18.96;100.00;98670.50;1656214;86;21003;-75
2021/07/02 03:37:07;;;;;;;16.55;9.85;;;;;;;18.96;100.00;98676.86;1662286;85;20954;-76
2021/07/02 03:39:35;;;;;;;21.30;9.80;;;;;;;19.01;100.00;98677.08;1660925;86;20994;-78
2021/07/02 03:42:03;;;;;;;14.00;9.33;;;;;;;19.06;100.00;98675.30;1658260;85;21499;-78
2021/07/02 03:44:30;;;;;;;14.33;9.85;;;;;;;19.07;100.00;98681.83;1658309;86;21422;-78
2021/07/02 03:46:58;;;;;;;14.58;9.53;;;;;;;19.08;100.00;98681.23;1657349;86;21156;-74
2021/07/02 03:49:25;;;;;;;13.08;9.78;;;;;;;19.09;100.00;98690.58;1656896;85;21505;-76
2021/07/02 03:51:52;;;;;;;14.47;9.50;;;;;;;19.11;99.99;98688.80;1657713;86;20987;-77
2021/07/02 03:54:19;;;;;;;14.45;9.43;;;;;;;19.15;99.70;98689.61;1660668;86;20938;-80
2021/07/02 03:59:32;;;;;;;13.72;9.20;;;;;;;19.20;99.35;98685.64;1644717;85;20880;-69
2021/07/02 04:01:59;;;;;;;16.55;10.10;;;;;;;19.24;99.37;98677.50;1634181;87;21018;-83
2021/07/02 04:04:25;;;;;;;9.50;8.35;;;;;;;19.32;99.61;98679.70;1642654;85;21026;-83
2021/07/02 04:06:51;;;;;;;16.12;9.55;;;;;;;19.41;98.71;98685.09;1622813;87;21072;-78
2021/07/02 04:09:18;;;;;;;12.58;9.68;;;;;;;19.46;98.06;98681.92;1605154;89;21082;-80
2021/07/02 04:11:45;;;;;;;12.50;8.63;;;;;;;19.51;97.43;98681.33;1605191;88;21225;-78
2021/07/02 04:14:13;;;;;;;22.80;10.30;;;;;;;19.51;97.34;98691.90;1605233;89;21056;-75
2021/07/02 04:16:40;;;;;;;15.03;9.80;;;;;;;19.51;96.36;98684.11;1605248;89;21050;-80
2021/07/02 04:19:06;;;;;;;18.42;9.68;;;;;;;19.50;96.69;98684.71;1605368;89;21600;-77
2021/07/02 04:21:34;;;;;;;13.72;9.60;;;;;;;19.52;96.63;98680.17;1605204;89;21230;-80
2021/07/02 04:24:01;;;;;;;12.73;9.65;;;;;;;19.55;96.57;98673.21;1605303;89;21150;-83
2021/07/02 04:26:27;;;;;;;40.55;11.83;;;;;;;19.58;96.20;98674.41;1605217;89;21082;-83
2021/07/02 04:28:53;;;;;;;16.57;9.65;;;;;;;19.59;96.17;98671.23;1605387;88;20997;-82
2021/07/02 04:31:20;;;;;;;17.98;9.25;;;;;;;19.63;95.88;98673.42;1605331;89;20973;-77
2021/07/02 04:33:46;;;;;;;12.25;9.88;;;;;;;19.65;95.69;98671.00;1624042;87;21547;-81
2021/07/02 04:36:14;;;;;;;11.78;9.75;;;;;;;19.69;95.96;98668.22;1627133;85;21554;-79
2021/07/02 04:38:43;;;;;;;14.20;10.05;;;;;;;19.76;95.08;98669.61;1643657;84;21178;-81
2021/07/02 04:41:09;;;;;;;15.28;10.03;;;;;;;19.77;94.74;98669.22;1628727;86;21060;-82
2021/07/02 04:43:36;;;;;;;13.45;10.03;;;;;;;19.79;94.63;98673.79;1640586;86;21548;-84
2021/07/02 04:46:03;;;;;;;13.03;9.65;;;;;;;19.85;94.10;98665.83;1645171;85;21123;-81
2021/07/02 04:48:30;;;;;;;12.85;9.90;;;;;;;19.89;93.66;98666.63;1641214;86;21128;-84
2021/07/02 04:50:57;;;;;;;14.00;10.20;;;;;;;19.94;93.14;98674.58;1634030;86;21138;-81
2021/07/02 04:53:23;;;;;;;16.70;9.65;;;;;;;19.98;92.38;98674.58;1640804;85;21043;-82
2021/07/02 04:55:49;;;;;;;19.90;10.32;;;;;;;19.98;92.10;98678.16;1637236;86;21099;-82
2021/07/02 04:58:21;;;;;;;15.60;10.53;;;;;;;20.03;92.45;98681.94;1658563;86;21541;-81
2021/07/02 05:00:44;;;;;;;14.95;10.88;;;;;;;20.12;92.11;98682.92;1634235;85;21981;-74
2021/07/02 05:03:10;;;;;;;16.27;10.70;;;;;;;20.15;91.93;98681.33;1633893;85;20986;-73
2021/07/02 05:05:39;;;;;;;18.82;10.70;;;;;;;20.19;91.43;98681.52;1649946;85;20941;-72
2021/07/02 05:08:06;;;;;;;14.75;11.00;;;;;;;20.23;90.68;98683.67;1616430;86;20952;-73
2021/07/02 05:10:32;;;;;;;13.72;10.40;;;;;;;20.25;90.53;98681.28;1634319;86;20985;-73
2021/07/02 05:13:00;;;;;;;14.43;10.65;;;;;;;20.32;90.68;98677.69;1653863;86;21093;-76
2021/07/02 05:15:26;;;;;;;16.27;11.00;;;;;;;20.40;89.69;98692.63;1616473;86;21739;-71
2021/07/02 05:17:53;;;;;;;15.88;10.20;;;;;;;20.46;88.36;98690.23;1610410;87;20992;-73
2021/07/02 05:20:20;;;;;;;16.50;10.90;;;;;;;20.52;89.21;98696.19;1617194;86;21496;-77
2021/07/02 05:22:48;;;;;;;11.68;9.85;;;;;;;20.62;89.08;98692.57;1621527;88;20978;-75
2021/07/02 05:25:15;;;;;;;12.20;10.25;;;;;;;20.74;88.46;98701.89;1611727;87;21548;-71
2021/07/02 05:27:42;;;;;;;16.27;10.60;;;;;;;20.79;87.65;98701.48;1616382;88;20936;-74
2021/07/02 05:30:10;;;;;;;14.33;10.30;;;;;;;20.89;88.42;98700.61;1618126;87;21108;-77
2021/07/02 05:32:36;;;;;;;17.15;10.32;;;;;;;20.99;86.84;98708.14;1609007;86;21026;-73
2021/07/02 05:35:06;;;;;;;12.60;9.55;;;;;;;21.05;86.74;98700.14;1622258;86;21218;-75
2021/07/02 05:37:32;;;;;;;14.15;9.75;;;;;;;21.09;85.16;98703.11;1650846;84;21116;-72
2021/07/02 05:39:59;;;;;;;12.75;9.08;;;;;;;21.09;84.51;98708.70;1662209;84;20924;-71
2021/07/02 05:42:25;;;;;;;12.33;9.00;;;;;;;21.14;83.93;98708.88;1649877;85;21024;-73
2021/07/02 05:44:52;;;;;;;14.50;8.85;;;;;;;21.21;83.84;98698.27;1640180;84;21617;-73
2021/07/02 05:47:22;;;;;;;20.85;13.85;;;;;;;21.30;83.83;98696.66;1642788;86;21039;-74
2021/07/02 05:49:46;;;;;;;18.30;10.50;;;;;;;21.35;82.83;98689.25;1648326;86;21501;-73
2021/07/02 05:52:13;;;;;;;14.60;9.68;;;;;;;21.38;82.70;98687.61;1641263;86;21116;-73
2021/07/02 05:54:39;;;;;;;13.70;9.90;;;;;;;21.42;81.50;98682.80;1646160;84;21011;-73
2021/07/02 05:57:06;;;;;;;16.57;10.25;;;;;;;21.45;82.16;98679.19;1630309;84;21042;-73
2021/07/02 05:59:32;;;;;;;15.38;10.10;;;;;;;21.53;81.50;98677.94;1658092;84;20921;-73
2021/07/02 06:01:58;;;;;;;12.15;9.60;;;;;;;21.59;80.52;98684.67;1640353;86;21737;-73
2021/07/02 06:04:24;;;;;;;11.95;10.68;;;;;;;21.58;80.00;98689.27;1639043;86;20957;-74
2021/07/02 06:06:51;;;;;;;11.18;9.70;;;;;;;21.58;80.52;98690.66;1657682;86;20976;-72
2021/07/02 06:09:17;;;;;;;15.32;9.93;;;;;;;21.67;81.47;98693.19;1633410;85;21026;-73
2021/07/02 06:11:43;;;;;;;13.45;10.00;;;;;;;21.77;80.43;98692.13;1628164;85;21519;-73
2021/07/02 06:14:10;;;;;;;14.75;9.43;;;;;;;21.79;78.39;98692.51;1632692;85;21480;-74
2021/07/02 06:16:36;;;;;;;17.82;11.28;;;;;;;21.80;79.63;98688.51;1644518;86;21027;-73
2021/07/02 06:19:03;;;;;;;12.25;9.43;;;;;;;21.91;80.05;98694.80;1631904;86;21069;-73
2021/07/02 06:21:29;;;;;;;11.48;8.85;;;;;;;21.98;78.57;98700.30;1644065;85;21073;-72
2021/07/02 06:23:56;;;;;;;13.30;9.50;;;;;;;21.98;77.81;98706.69;1609939;87;21047;-72
2021/07/02 06:26:22;;;;;;;15.95;9.75;;;;;;;22.03;76.48;98712.47;1624816;87;21090;-72
2021/07/02 06:28:49;;;;;;;13.70;9.28;;;;;;;22.03;76.33;98706.88;1626140;88;21476;-72
2021/07/02 06:31:16;;;;;;;11.45;8.93;;;;;;;22.03;76.86;98699.28;1626053;88;20985;-72
2021/07/02 06:33:42;;;;;;;13.70;9.03;;;;;;;22.11;76.93;98706.21;1626146;87;21464;-72
2021/07/02 06:36:08;;;;;;;13.70;9.55;;;;;;;22.21;76.57;98709.52;1626165;87;20981;-72
2021/07/02 06:38:35;;;;;;;14.65;9.58;;;;;;;22.27;76.10;98709.25;1626099;88;21154;-73
2021/07/02 06:41:01;;;;;;;15.05;9.00;;;;;;;22.25;75.55;98720.85;1626103;87;20978;-72
2021/07/02 06:43:28;;;;;;;15.38;9.05;;;;;;;22.22;75.44;98721.68;1626108;87;20941;-72
2021/07/02 06:45:54;;;;;;;10.60;8.78;;;;;;;22.25;75.35;98714.47;1626064;88;21052;-72
2021/07/02 06:48:21;;;;;;;10.13;8.38;;;;;;;22.36;76.54;98703.38;1626195;88;21449;-71
2021/07/02 06:50:48;;;;;;;11.38;8.55;;;;;;;22.52;74.32;98707.61;1626505;85;21208;-72
2021/07/02 06:53:15;;;;;;;14.78;8.80;;;;;;;22.64;75.44;98700.84;1641197;86;21025;-73
2021/07/02 06:55:43;;;;;;;15.70;8.40;;;;;;;22.84;75.55;98699.66;1625083;85;21045;-73
2021/07/02 06:58:10;;;;;;;18.25;9.43;;;;;;;22.97;73.55;98688.09;1641882;85;21089;-73
2021/07/02 07:00:41;;;;;;;17.42;9.80;;;;;;;23.09;73.74;98685.34;1629031;86;21568;-73
2021/07/02 07:03:07;;;;;;;13.28;8.33;;;;;;;23.16;71.42;98687.23;1609448;88;21053;-72
2021/07/02 07:05:35;;;;;;;13.70;8.50;;;;;;;23.14;72.28;98691.05;1609469;89;21639;-72
2021/07/02 07:08:05;;;;;;;10.82;7.33;;;;;;;23.17;72.52;98679.02;1609581;89;21013;-72
2021/07/02 07:10:32;;;;;;;8.73;7.83;;;;;;;23.21;71.62;98680.55;1609657;89;21029;-72
2021/07/02 07:12:59;;;;;;;11.00;7.42;;;;;;;23.21;70.91;98676.95;1609555;88;21128;-72
2021/07/02 07:15:25;;;;;;;13.60;7.58;;;;;;;23.21;71.25;98685.36;1609887;88;22142;-71
2021/07/02 07:17:52;;;;;;;13.13;7.97;;;;;;;23.21;69.94;98682.56;1609696;89;21057;-71
2021/07/02 07:20:19;;;;;;;9.53;7.60;;;;;;;23.29;69.79;98681.24;1609603;89;20973;-73
2021/07/02 07:22:47;;;;;;;9.80;7.40;;;;;;;23.33;70.42;98677.78;1609751;88;21101;-73
2021/07/02 07:25:14;;;;;;;9.55;7.33;;;;;;;23.40;69.12;98677.69;1609509;89;21124;-72
2021/07/02 07:27:43;;;;;;;13.08;7.85;;;;;;;23.44;69.37;98670.62;1609832;89;21087;-72
2021/07/02 07:30:12;;;;;;;10.68;7.78;;;;;;;23.45;69.83;98683.42;1609264;89;21069;-73
2021/07/02 07:32:38;;;;;;;8.68;7.67;;;;;;;23.48;70.00;98681.17;1609776;89;21085;-73
2021/07/02 07:35:19;;;;;;;10.40;7.17;;;;;;;23.64;69.38;98681.36;1609585;88;21096;-72
2021/07/02 07:37:41;;;;;;;15.40;7.62;;;;;;;23.77;68.82;98675.92;1609566;88;21022;-72
2021/07/02 07:40:09;;;;;;;25.20;8.95;;;;;;;23.88;69.26;98675.93;1609494;89;21161;-73
2021/07/02 07:42:36;;;;;;;13.80;8.30;;;;;;;23.90;67.97;98672.70;1609609;89;21553;-72
2021/07/02 07:45:03;;;;;;;11.55;8.03;;;;;;;23.88;68.01;98680.74;1629876;85;21017;-73
2021/07/02 07:47:30;;;;;;;9.38;7.15;;;;;;;23.91;66.63;98683.48;1627687;86;20961;-71
2021/07/02 07:50:00;;;;;;;12.05;8.08;;;;;;;24.03;67.29;98669.47;1610235;89;21001;-72
2021/07/02 07:52:39;;;;;;;10.95;7.78;;;;;;;24.29;67.19;98675.61;1610185;89;21049;-72
2021/07/02 07:54:56;;;;;;;9.48;7.85;;;;;;;24.52;66.14;98683.20;1610977;88;20883;-72
2021/07/02 07:57:22;;;;;;;9.35;6.78;;;;;;;24.59;65.63;98684.47;1610342;89;21452;-71
2021/07/02 07:59:48;;;;;;;7.83;6.53;;;;;;;24.71;65.46;98680.84;1610518;89;20946;-72
2021/07/02 08:02:15;;;;;;;8.63;6.80;;;;;;;24.79;63.73;98677.45;1610247;89;21093;-72
2021/07/02 08:04:41;;;;;;;9.95;7.30;;;;;;;24.92;65.29;98685.38;1610402;89;21027;-73
2021/07/02 08:07:09;;;;;;;9.48;7.05;;;;;;;25.15;62.93;98687.95;1610216;89;20985;-72
2021/07/02 08:09:36;;;;;;;8.88;6.60;;;;;;;25.19;63.19;98690.06;1622723;85;21631;-72
2021/07/02 08:12:02;;;;;;;7.08;6.30;;;;;;;25.17;63.07;98683.48;1622579;86;20969;-72
2021/07/02 08:14:29;;;;;;;8.50;6.67;;;;;;;25.22;63.34;98690.59;1610589;89;20882;-72
2021/07/02 08:16:57;;;;;;;12.28;6.55;;;;;;;25.24;62.61;98696.57;1610190;89;21512;-72
2021/07/02 08:19:23;;;;;;;10.58;6.80;;;;;;;25.30;63.02;98694.83;1610107;89;20950;-72
2021/07/02 08:21:50;;;;;;;12.73;7.12;;;;;;;25.32;62.18;98703.00;1610343;89;21079;-72
2021/07/02 08:24:17;;;;;;;8.45;6.90;;;;;;;25.18;62.47;98699.09;1653005;85;21585;-72
2021/07/02 08:26:44;;;;;;;13.38;6.55;;;;;;;25.24;62.41;98705.00;1656397;85;20930;-72
2021/07/02 08:29:23;;;;;;;10.82;6.55;;;;;;;25.18;62.40;98710.95;1662086;85;21146;-72
2021/07/02 08:31:50;;;;;;;9.38;6.37;;;;;;;25.29;62.19;98703.88;1653895;85;20995;-73
2021/07/02 08:34:17;;;;;;;11.97;6.25;;;;;;;25.62;60.80;98702.50;1647521;86;21010;-72
2021/07/02 08:36:45;;;;;;;8.30;5.97;;;;;;;25.99;59.85;98697.02;1651896;85;21061;-73
2021/07/02 08:39:11;;;;;;;9.85;5.87;;;;;;;26.46;59.90;98695.21;1663793;85;21492;-72
2021/07/02 08:41:38;;;;;;;13.10;6.25;;;;;;;26.85;58.31;98703.95;1647811;85;21465;-72
2021/07/02 08:44:06;;;;;;;9.38;6.33;;;;;;;26.92;56.59;98705.95;1640933;86;21053;-72
2021/07/02 08:46:34;;;;;;;8.28;6.65;;;;;;;26.94;55.53;98704.88;1656297;85;21559;-72
2021/07/02 08:49:01;;;;;;;10.15;7.05;;;;;;;26.92;55.48;98707.36;1659917;85;20857;-72
2021/07/02 08:51:27;;;;;;;9.30;6.20;;;;;;;26.96;57.58;98710.10;1651423;86;21540;-72
2021/07/02 08:53:54;;;;;;;10.58;6.92;;;;;;;26.87;56.36;98709.31;1651328;87;21520;-72
2021/07/02 08:56:21;;;;;;;10.15;6.25;;;;;;;26.88;55.78;98712.30;1651620;87;21482;-72
2021/07/02 08:58:47;;;;;;;7.70;5.95;;;;;;;27.07;55.02;98720.44;1651336;87;21009;-72
2021/07/02 09:01:41;;;;;;;11.40;6.30;;;;;;;27.41;55.11;98718.39;1651280;87;21640;-72
2021/07/02 09:04:19;;;;;;;11.85;6.12;;;;;;;27.57;53.95;98718.92;1649958;86;21089;-71
2021/07/02 09:07:11;;;;;;;11.38;6.45;;;;;;;27.47;54.19;98710.17;1650676;86;21073;-71
2021/07/02 09:09:57;;;;;;;9.63;5.85;;;;;;;27.46;53.39;98716.42;1650742;87;21706;-71
2021/07/02 09:12:31;;;;;;;8.60;5.92;;;;;;;27.55;52.98;98709.50;1650779;86;21024;-72
2021/07/02 09:15:10;;;;;;;10.82;6.40;;;;;;;27.63;53.45;98708.69;1650846;86;21124;-72
2021/07/02 09:17:53;;;;;;;10.28;6.12;;;;;;;27.55;53.13;98705.27;1650321;85;21595;-72
2021/07/02 09:20:27;;;;;;;10.58;6.65;;;;;;;27.67;53.72;98707.17;1639362;85;21132;-73
2021/07/02 09:23:02;;;;;;;9.15;6.30;;;;;;;27.97;53.69;98693.86;1665668;85;21019;-72
2021/07/02 09:25:45;;;;;;;8.48;6.25;;;;;;;28.42;52.81;98695.56;1671397;86;21002;-72
2021/07/02 09:28:11;;;;;;;29.02;7.28;;;;;;;28.72;51.43;98699.74;1671679;85;20946;-72
2021/07/02 09:30:44;;;;;;;6.78;5.95;;;;;;;28.77;52.65;98699.95;1671142;86;21006;-72
2021/07/02 09:33:16;;;;;;;8.35;5.72;;;;;;;28.64;50.06;98702.03;1671695;85;21722;-72
2021/07/02 09:35:47;;;;;;;19.82;6.95;;;;;;;28.22;50.39;98702.93;1671306;86;20914;-72
2021/07/02 09:38:17;;;;;;;9.63;5.87;;;;;;;27.86;52.03;98706.91;1671562;85;20954;-72
2021/07/02 09:40:46;;;;;;;10.88;6.30;;;;;;;27.70;52.42;98702.03;1671283;85;21387;-72
2021/07/02 09:43:19;;;;;;;10.18;6.75;;;;;;;27.42;52.41;98707.30;1671617;85;21422;-72
2021/07/02 09:45:57;;;;;;;13.03;6.67;;;;;;;27.20;53.61;98700.72;1671410;85;21157;-73
2021/07/02 09:48:26;;;;;;;7.20;6.17;;;;;;;27.25;53.63;98695.32;1671332;86;20991;-72
2021/07/02 09:51:01;;;;;;;9.63;6.33;;;;;;;27.54;53.93;98693.83;1671346;86;20894;-72
2021/07/02 09:53:33;;;;;;;9.13;6.50;;;;;;;27.88;52.18;98697.99;1671563;85;20989;-72
2021/07/02 09:56:03;;;;;;;8.48;6.00;;;;;;;27.84;51.82;98697.31;1671608;86;20918;-72
2021/07/02 09:58:36;;;;;;;8.70;6.60;;;;;;;27.60;51.65;98703.33;1638002;85;21799;-72
2021/07/02 10:01:03;;;;;;;8.18;6.80;;;;;;;27.51;52.55;98701.78;1627646;86;20958;-72
2021/07/02 10:03:39;;;;;;;11.63;7.10;;;;;;;27.75;53.80;98698.63;1626201;88;20898;-72
2021/07/02 10:06:14;;;;;;;11.70;6.80;;;;;;;28.01;52.33;98696.56;1626134;88;20954;-72
2021/07/02 10:08:41;;;;;;;10.25;6.62;;;;;;;27.99;52.74;98699.84;1626231;88;20998;-72
2021/07/02 10:11:10;;;;;;;10.13;6.37;;;;;;;27.70;52.41;98702.83;1626292;88;21555;-72
2021/07/02 10:13:39;;;;;;;11.33;6.65;;;;;;;27.36;53.20;98702.05;1626079;88;21029;-72
2021/07/02 10:16:07;;;;;;;7.65;6.83;;;;;;;27.10;54.47;98700.45;1626152;88;20989;-74
2021/07/02 10:18:41;;;;;;;9.88;6.90;;;;;;;27.22;55.43;98701.85;1639504;86;20953;-73
2021/07/02 10:21:09;;;;;;;9.58;6.90;;;;;;;27.54;54.94;98698.05;1652737;86;21013;-74
2021/07/02 10:23:39;;;;;;;11.85;6.22;;;;;;;27.94;53.06;98701.20;1652540;86;21654;-73
2021/07/02 10:26:07;;;;;;;7.10;5.80;;;;;;;28.00;53.08;98697.19;1652320;86;21612;-73
2021/07/02 10:28:37;;;;;;;7.40;6.33;;;;;;;27.91;51.37;98698.50;1646502;85;21072;-74
2021/07/02 10:31:06;;;;;;;13.15;6.90;;;;;;;27.62;51.86;98695.83;1593712;87;21010;-73
2021/07/02 10:33:32;;;;;;;6.78;5.78;;;;;;;27.54;52.55;98690.22;1646049;86;20917;-73
2021/07/02 10:36:03;;;;;;;8.68;6.05;;;;;;;27.67;51.56;98688.22;1641596;87;21556;-73
2021/07/02 10:38:50;;;;;;;7.05;5.70;;;;;;;27.79;49.18;98689.42;1631149;87;20914;-73
2021/07/02 10:41:23;;;;;;;8.13;6.45;;;;;;;27.92;51.80;98687.38;1637657;86;21092;-73
2021/07/02 10:44:08;;;;;;;7.20;5.58;;;;;;;28.24;51.41;98687.12;1627110;86;20991;-74
2021/07/02 10:46:39;;;;;;;17.85;6.70;;;;;;;28.55;50.85;98682.20;1630456;86;21032;-74
2021/07/02 10:49:10;;;;;;;9.35;6.12;;;;;;;28.46;49.52;98686.35;1635142;86;21702;-73
2021/07/02 10:51:49;;;;;;;8.73;6.17;;;;;;;28.23;50.31;98684.13;1615734;86;37518;-74
2021/07/02 10:54:26;;;;;;;6.97;5.80;;;;;;;28.12;50.99;98672.39;1663356;85;20969;-73
2021/07/02 10:57:02;;;;;;;6.87;5.97;;;;;;;28.14;50.83;98676.17;1660426;85;20994;-73
2021/07/02 10:59:46;;;;;;;7.62;6.00;;;;;;;28.15;52.37;98677.75;1674015;85;20981;-74
2021/07/02 11:02:19;;;;;;;8.25;5.92;;;;;;;28.08;50.86;98668.12;1672947;85;21148;-74
2021/07/02 11:04:48;;;;;;;8.78;5.83;;;;;;;27.92;50.44;98666.23;1646264;85;21628;-74
2021/07/02 11:07:29;;;;;;;10.90;6.05;;;;;;;27.70;51.63;98669.61;1628274;85;21607;-74
2021/07/02 11:10:02;;;;;;;9.45;6.30;;;;;;;27.61;52.76;98676.72;1634475;86;21067;-75
2021/07/02 11:12:46;;;;;;;9.48;6.65;;;;;;;27.58;51.92;98671.95;1650990;86;21017;-72
2021/07/02 11:15:16;;;;;;;7.55;6.20;;;;;;;27.57;51.12;98673.81;1622250;86;21716;-72
2021/07/02 11:17:53;;;;;;;7.75;6.10;;;;;;;27.64;52.14;98672.20;1605242;86;21083;-72
2021/07/02 11:20:26;;;;;;;7.72;6.58;;;;;;;27.71;51.54;98671.98;1611639;86;21059;-72
2021/07/02 11:23:15;;;;;;;10.58;6.58;;;;;;;27.70;51.48;98666.79;1634301;86;21046;-72
2021/07/02 11:25:56;;;;;;;18.02;6.50;;;;;;;27.69;52.09;98659.58;1648374;86;20916;-73
2021/07/02 11:28:42;;;;;;;11.28;5.80;;;;;;;27.77;51.42;98650.41;1649293;86;21074;-72
2021/07/02 11:31:09;;;;;;;8.63;5.78;;;;;;;27.86;52.22;98658.96;1646191;86;21591;-72
2021/07/02 11:33:36;;;;;;;7.08;5.78;;;;;;;28.10;51.22;98653.72;1654034;86;21011;-72